Time;durP1;ratioP1;P1;durP2;ratioP2;P2;SDS_P1;SDS_P2;PMS_P1;PMS_P2;Temp;Humidity;BMP_temperature;BMP_pressure;BME280_temperature;BME280_humidity;BME280_pressure;Samples;Min_cycle;Max_cycle;Signal;HPM_P1;HPM_P2
2023/04/09 00:02:19;;;;;;;29.58;22.98;;;;;;;9.13;95.74;102574.06;5035259;28;20468;-75
2023/04/09 00:04:44;;;;;;;28.38;23.05;;;;;;;9.09;95.86;102568.16;5053346;28;20112;-74
2023/04/09 00:07:10;;;;;;;27.58;22.05;;;;;;;9.11;96.20;102570.69;5053766;28;20033;-74
2023/04/09 00:09:36;;;;;;;29.30;23.05;;;;;;;9.07;95.93;102566.50;5053551;28;20070;-75
2023/04/09 00:12:02;;;;;;;30.63;24.05;;;;;;;8.93;96.45;102542.84;5053741;28;20043;-75
2023/04/09 00:14:28;;;;;;;29.65;24.33;;;;;;;9.06;96.34;102565.69;5035738;28;20040;-75
2023/04/09 00:16:53;;;;;;;31.27;24.63;;;;;;;8.94;96.73;102536.81;5053810;28;20021;-74
2023/04/09 00:19:19;;;;;;;28.92;22.02;;;;;;;9.06;96.25;102562.25;5053542;28;20021;-75
2023/04/09 00:21:45;;;;;;;30.38;24.23;;;;;;;9.01;96.79;102554.63;5053420;28;20020;-74
2023/04/09 00:24:10;;;;;;;29.13;23.88;;;;;;;9.04;96.45;102554.53;5053017;28;20033;-73
2023/04/09 00:26:35;;;;;;;30.52;23.05;;;;;;;8.91;96.53;102545.50;5053348;28;20040;-74
2023/04/09 00:29:01;;;;;;;29.63;22.83;;;;;;;8.97;97.19;102555.63;5053442;28;20032;-74
2023/04/09 00:31:26;;;;;;;27.85;23.00;;;;;;;8.98;96.95;102552.16;5053390;28;20096;-74
2023/04/09 00:33:51;;;;;;;30.35;23.73;;;;;;;8.95;97.19;102552.25;5053295;28;20451;-73
2023/04/09 00:36:17;;;;;;;30.40;23.98;;;;;;;8.81;97.38;102523.44;5052918;28;20045;-74
2023/04/09 00:38:42;;;;;;;29.83;23.73;;;;;;;8.97;97.43;102558.22;5053132;28;20021;-74
2023/04/09 00:41:07;;;;;;;28.85;23.52;;;;;;;8.88;97.66;102532.69;5053148;28;20091;-76
2023/04/09 00:43:33;;;;;;;31.75;23.80;;;;;;;8.99;97.57;102545.28;5034968;28;20478;-76
2023/04/09 00:45:59;;;;;;;31.48;23.92;;;;;;;8.87;97.60;102537.00;5053038;28;20036;-75
2023/04/09 00:48:25;;;;;;;33.55;24.85;;;;;;;8.88;97.75;102533.53;5053060;28;20021;-74
2023/04/09 00:50:51;;;;;;;31.10;24.25;;;;;;;8.89;98.04;102540.38;5034884;28;20120;-74
2023/04/09 00:53:17;;;;;;;34.38;26.15;;;;;;;8.87;98.20;102531.88;5053098;28;20109;-74
2023/04/09 00:55:42;;;;;;;33.15;25.40;;;;;;;8.91;98.11;102538.59;5052549;28;20036;-74
2023/04/09 00:58:08;;;;;;;33.60;25.38;;;;;;;8.95;98.20;102546.22;5052889;28;20040;-73
2023/04/09 01:00:33;;;;;;;32.25;25.20;;;;;;;8.94;98.56;102542.81;5052803;28;20096;-74
2023/04/09 01:02:59;;;;;;;33.83;26.42;;;;;;;8.94;98.59;102539.41;5052642;28;20029;-73
2023/04/09 01:05:34;;;;;;;33.05;24.65;;;;;;;8.95;98.04;102541.06;5052628;28;20110;-74
2023/04/09 01:08:18;;;;;;;32.75;25.85;;;;;;;8.93;98.51;102543.69;5052899;28;20029;-75
2023/04/09 01:10:58;;;;;;;31.95;26.30;;;;;;;8.77;98.91;102511.56;5052467;28;20037;-74
2023/04/09 01:13:34;;;;;;;33.03;24.70;;;;;;;8.94;98.54;102534.25;5052889;28;20104;-74
2023/04/09 01:16:00;;;;;;;33.85;25.83;;;;;;;8.91;98.81;102530.03;5052031;28;20037;-74
2023/04/09 01:18:42;;;;;;;33.17;25.70;;;;;;;8.91;98.65;102533.44;5052460;28;20428;-74
2023/04/09 01:21:16;;;;;;;36.22;26.00;;;;;;;8.89;99.03;102535.22;5052351;28;20028;-74
2023/04/09 01:24:03;;;;;;;33.67;25.92;;;;;;;8.86;98.68;102532.75;5052456;28;20025;-74
2023/04/09 01:26:38;;;;;;;34.70;25.52;;;;;;;8.85;98.85;102527.66;5052417;28;20033;-74
2023/04/09 01:29:05;;;;;;;33.10;25.98;;;;;;;8.86;99.25;102527.59;5052454;28;20033;-74
2023/04/09 01:31:37;;;;;;;35.85;26.83;;;;;;;8.83;99.15;102527.66;5052231;28;20033;-74
2023/04/09 01:34:03;;;;;;;36.05;26.55;;;;;;;8.86;99.06;102527.59;5052584;28;20036;-74
2023/04/09 01:36:31;;;;;;;34.08;25.15;;;;;;;8.66;99.21;102496.41;5052227;28;20497;-74
2023/04/09 01:38:56;;;;;;;34.28;25.98;;;;;;;8.72;99.07;102511.66;5052415;28;20071;-74
2023/04/09 01:41:23;;;;;;;37.78;26.60;;;;;;;8.80;99.90;102520.03;5052263;28;20470;-75
2023/04/09 01:43:50;;;;;;;33.72;26.08;;;;;;;8.82;100.00;102519.97;5051008;28;20025;-74
2023/04/09 01:46:20;;;;;;;35.13;26.00;;;;;;;8.80;99.48;102516.63;5051926;28;20123;-74
2023/04/09 01:48:46;;;;;;;35.38;25.67;;;;;;;8.76;99.56;102523.59;5052214;28;20539;-74
2023/04/09 01:51:15;;;;;;;34.45;25.33;;;;;;;8.75;99.98;102527.06;5052345;28;20025;-74
2023/04/09 01:53:41;;;;;;;34.58;25.63;;;;;;;8.51;99.93;102486.53;5052139;28;20021;-74
2023/04/09 01:56:08;;;;;;;34.50;26.35;;;;;;;8.70;100.00;102504.88;5052071;28;20386;-74
2023/04/09 01:58:34;;;;;;;37.00;27.58;;;;;;;8.73;100.00;102515.94;5050307;28;20112;-77
2023/04/09 02:01:02;;;;;;;39.42;27.65;;;;;;;8.74;100.00;102519.34;5052048;28;20028;-74
2023/04/09 02:03:38;;;;;;;33.92;25.90;;;;;;;8.67;100.00;102510.97;5052330;28;20017;-73
2023/04/09 02:06:14;;;;;;;34.38;25.52;;;;;;;8.70;100.00;102526.34;5052375;28;20493;-74
2023/04/09 02:08:45;;;;;;;36.63;27.42;;;;;;;8.46;100.00;102478.94;5052383;28;20033;-74
2023/04/09 02:11:13;;;;;;;34.42;26.48;;;;;;;8.63;100.00;102501.63;5052178;28;20029;-73
2023/04/09 02:13:40;;;;;;;38.25;27.40;;;;;;;8.64;100.00;102503.31;5050632;28;20505;-74
2023/04/09 02:16:07;;;;;;;37.38;28.30;;;;;;;8.62;100.00;102511.09;5052148;28;20029;-74
2023/04/09 02:18:33;;;;;;;37.70;27.60;;;;;;;8.57;100.00;102491.53;5052121;28;20032;-74
2023/04/09 02:20:58;;;;;;;36.95;27.20;;;;;;;8.70;100.00;102523.75;5052056;28;20029;-74
2023/04/09 02:23:26;;;;;;;39.00;26.98;;;;;;;8.63;100.00;102506.78;5034062;28;20466;-75
2023/04/09 02:25:52;;;;;;;38.53;27.58;;;;;;;8.69;100.00;102522.06;5051790;28;20032;-79
2023/04/09 02:28:17;;;;;;;39.03;28.23;;;;;;;8.52;100.00;102491.63;5054261;28;20048;-74
2023/04/09 02:30:43;;;;;;;42.88;30.13;;;;;;;8.67;100.00;102513.56;5055513;28;20064;-74
2023/04/09 02:33:09;;;;;;;39.80;28.42;;;;;;;8.66;100.00;102506.72;5055546;28;20489;-74
2023/04/09 02:35:34;;;;;;;40.13;29.85;;;;;;;8.53;100.00;102485.59;5055364;28;20491;-74
2023/04/09 02:38:00;;;;;;;43.90;30.20;;;;;;;8.62;100.00;102510.25;5055428;28;20120;-74
2023/04/09 02:40:25;;;;;;;41.30;28.60;;;;;;;8.53;100.00;102500.19;5055341;28;20029;-74
2023/04/09 02:42:52;;;;;;;43.58;29.77;;;;;;;8.52;100.00;102495.94;5055158;28;20110;-74
2023/04/09 02:45:17;;;;;;;44.70;32.22;;;;;;;8.45;100.00;102481.53;5055205;28;20033;-75
2023/04/09 02:47:42;;;;;;;43.95;30.83;;;;;;;8.52;100.00;102490.78;5036985;28;20127;-74
2023/04/09 02:50:08;;;;;;;42.63;30.27;;;;;;;8.48;100.00;102481.47;5055211;28;20102;-74
2023/04/09 02:52:33;;;;;;;42.92;30.75;;;;;;;8.59;100.00;102502.63;5055248;28;20029;-74
2023/04/09 02:54:59;;;;;;;44.03;30.70;;;;;;;8.48;100.00;102489.19;5054859;28;20056;-74
2023/04/09 02:57:24;;;;;;;44.13;30.15;;;;;;;8.49;100.00;102490.88;5055581;28;20017;-73
2023/04/09 02:59:49;;;;;;;42.90;31.20;;;;;;;8.53;100.00;102497.63;5054875;28;20521;-73
2023/04/09 03:02:15;;;;;;;45.40;31.92;;;;;;;8.51;100.00;102494.25;5055179;28;20056;-75
2023/04/09 03:04:40;;;;;;;43.60;30.65;;;;;;;8.54;100.00;102497.56;5054959;28;20437;-74
2023/04/09 03:07:05;;;;;;;46.33;31.83;;;;;;;8.54;100.00;102496.72;5054966;28;20108;-74
2023/04/09 03:09:31;;;;;;;45.33;31.60;;;;;;;8.55;100.00;102490.69;5037258;28;20124;-76
2023/04/09 03:11:56;;;;;;;46.33;30.67;;;;;;;8.46;100.00;102481.53;5054572;28;20029;-75
2023/04/09 03:14:24;;;;;;;47.60;32.25;;;;;;;8.58;100.00;102488.06;5053418;28;20032;-74
2023/04/09 03:16:50;;;;;;;45.53;32.47;;;;;;;8.59;100.00;102488.00;5054792;28;20112;-74
2023/04/09 03:19:15;;;;;;;42.22;30.85;;;;;;;8.44;100.00;102461.84;5054822;28;20056;-74
2023/04/09 03:21:41;;;;;;;47.42;31.75;;;;;;;8.56;100.00;102489.84;5054460;28;20017;-73
2023/04/09 03:24:06;;;;;;;46.78;31.90;;;;;;;8.55;100.00;102488.13;5054530;28;20079;-74
2023/04/09 03:26:35;;;;;;;44.40;30.55;;;;;;;8.26;100.00;102435.72;5054394;28;20486;-75
2023/04/09 03:29:04;;;;;;;45.47;31.58;;;;;;;8.48;100.00;102481.47;5054451;28;20028;-74
2023/04/09 03:31:30;;;;;;;49.20;32.90;;;;;;;8.25;100.00;102446.84;5054604;28;20043;-74
2023/04/09 03:33:55;;;;;;;47.00;32.65;;;;;;;8.43;100.00;102484.16;5054378;28;20390;-74
2023/04/09 03:36:21;;;;;;;47.42;34.80;;;;;;;8.29;100.00;102461.34;5053936;28;20045;-74
2023/04/09 03:38:47;;;;;;;50.30;33.53;;;;;;;8.41;100.00;102473.06;5053522;28;20025;-74
2023/04/09 03:41:12;;;;;;;49.42;32.42;;;;;;;8.43;100.00;102478.16;5054203;28;20445;-74
2023/04/09 03:43:37;;;;;;;47.92;33.67;;;;;;;8.25;100.00;102449.44;5054169;28;20394;-74
2023/04/09 03:46:13;;;;;;;47.53;32.40;;;;;;;8.45;100.00;102476.38;5036124;28;20037;-74
2023/04/09 03:48:40;;;;;;;49.95;34.30;;;;;;;8.46;100.00;102470.38;5053992;28;20071;-74
2023/04/09 03:51:05;;;;;;;52.20;34.38;;;;;;;8.33;100.00;102446.66;5052970;28;20025;-74
2023/04/09 03:53:30;;;;;;;49.10;32.78;;;;;;;8.43;100.00;102465.28;5054091;28;20036;-75
2023/04/09 03:55:56;;;;;;;47.00;32.97;;;;;;;8.43;100.00;102467.88;5053823;28;20168;-79
2023/04/09 03:58:21;;;;;;;48.63;34.28;;;;;;;8.30;100.00;102454.47;5053811;28;20079;-79
2023/04/09 04:00:47;;;;;;;44.70;31.27;;;;;;;8.26;100.00;102447.72;5053669;28;20033;-74
2023/04/09 04:03:14;;;;;;;47.00;31.67;;;;;;;8.24;100.00;102450.31;5053776;28;20028;-76
2023/04/09 04:05:40;;;;;;;46.72;32.88;;;;;;;8.04;100.00;102409.69;5051942;28;20043;-72
2023/04/09 04:08:05;;;;;;;44.67;32.47;;;;;;;8.31;100.00;102462.16;5053885;28;20025;-74
2023/04/09 04:10:32;;;;;;;48.63;32.47;;;;;;;8.40;100.00;102473.13;5053709;28;20027;-73
2023/04/09 04:12:58;;;;;;;46.42;32.03;;;;;;;8.30;100.00;102455.31;5053553;28;20470;-74
2023/04/09 04:15:23;;;;;;;47.15;31.95;;;;;;;8.37;100.00;102471.47;5053416;28;20025;-74
2023/04/09 04:17:49;;;;;;;46.40;33.22;;;;;;;8.38;100.00;102469.75;5053778;28;20065;-74
2023/04/09 04:20:14;;;;;;;48.95;34.28;;;;;;;8.27;100.00;102457.13;5053408;28;20074;-75
2023/04/09 04:22:39;;;;;;;45.35;30.60;;;;;;;8.08;100.00;102433.63;5034837;28;20048;-74
2023/04/09 04:25:05;;;;;;;44.45;30.40;;;;;;;8.11;100.00;102456.69;5053426;28;20035;-76
2023/04/09 04:27:31;;;;;;;42.13;29.33;;;;;;;8.20;100.00;102474.47;5053173;28;20482;-74
2023/04/09 04:30:00;;;;;;;44.97;30.58;;;;;;;8.07;100.00;102457.69;5053113;28;20021;-75
2023/04/09 04:32:26;;;;;;;45.33;30.98;;;;;;;8.17;100.00;102468.56;5053390;28;20052;-74
2023/04/09 04:34:52;;;;;;;42.30;28.75;;;;;;;8.17;100.00;102466.84;5052888;28;20101;-76
2023/04/09 04:37:17;;;;;;;43.75;29.27;;;;;;;8.20;100.00;102474.47;5053185;28;20028;-75
2023/04/09 04:39:42;;;;;;;45.80;30.55;;;;;;;8.13;99.98;102467.78;5053168;28;20029;-74
2023/04/09 04:42:08;;;;;;;44.85;30.40;;;;;;;8.08;99.41;102458.50;5053004;28;20025;-75
2023/04/09 04:44:33;;;;;;;45.75;31.20;;;;;;;8.10;99.68;102460.16;5053030;28;20033;-79
2023/04/09 04:46:58;;;;;;;43.17;29.20;;;;;;;8.04;99.29;102463.72;5052768;28;20036;-75
2023/04/09 04:49:23;;;;;;;42.58;28.27;;;;;;;7.99;98.85;102468.16;5053094;28;20036;-74
2023/04/09 04:51:49;;;;;;;41.60;27.83;;;;;;;7.82;99.13;102457.44;5051926;28;20048;-74
2023/04/09 04:54:14;;;;;;;45.30;27.58;;;;;;;7.75;98.91;102453.34;5052917;28;20025;-75
2023/04/09 04:56:40;;;;;;;39.15;26.67;;;;;;;7.83;99.18;102469.41;5052909;28;20029;-74
2023/04/09 04:59:05;;;;;;;39.65;27.20;;;;;;;7.81;99.11;102483.22;5035177;28;20421;-75
2023/04/09 05:01:30;;;;;;;38.70;26.38;;;;;;;7.75;99.37;102477.31;5052620;28;20108;-74
2023/04/09 05:03:56;;;;;;;41.20;28.27;;;;;;;7.64;99.23;102479.31;5052888;28;20029;-74
2023/04/09 05:06:21;;;;;;;38.55;25.02;;;;;;;7.55;99.52;102465.84;5052649;28;20028;-75
2023/04/09 05:08:47;;;;;;;40.08;26.85;;;;;;;7.46;100.00;102472.88;5052774;28;20033;-75
2023/04/09 05:11:13;;;;;;;41.78;27.45;;;;;;;7.28;100.00;102457.06;5034849;28;20102;-74
2023/04/09 05:13:39;;;;;;;39.58;28.20;;;;;;;7.27;100.00;102465.63;5052534;28;20063;-75
2023/04/09 05:16:05;;;;;;;41.72;27.42;;;;;;;7.20;100.00;102464.97;5052690;28;20021;-75
2023/04/09 05:18:30;;;;;;;40.72;27.50;;;;;;;7.03;100.00;102449.91;5052450;28;20383;-74
2023/04/09 05:20:56;;;;;;;39.15;25.75;;;;;;;7.07;100.00;102466.94;5052573;28;20079;-75
2023/04/09 05:23:21;;;;;;;38.80;25.80;;;;;;;7.01;100.00;102469.66;5052462;28;20029;-75
2023/04/09 05:25:50;;;;;;;41.08;25.83;;;;;;;6.95;100.00;102476.63;5052373;28;20021;-79
2023/04/09 05:28:16;;;;;;;40.22;26.38;;;;;;;6.85;100.00;102465.72;5052334;28;20399;-75
2023/04/09 05:30:47;;;;;;;40.40;28.27;;;;;;;6.89;100.00;102477.63;5052450;28;20051;-74
2023/04/09 05:33:13;;;;;;;40.05;25.75;;;;;;;6.80;100.00;102459.84;5052423;28;20146;-76
2023/04/09 05:35:38;;;;;;;40.67;26.20;;;;;;;6.71;100.00;102457.47;5052122;28;20455;-74
2023/04/09 05:38:04;;;;;;;42.33;28.38;;;;;;;6.78;100.00;102459.84;5052582;28;20029;-75
2023/04/09 05:40:29;;;;;;;40.25;25.90;;;;;;;6.92;100.00;102481.84;5034400;28;20045;-75
2023/04/09 05:42:54;;;;;;;40.53;26.10;;;;;;;6.91;100.00;102468.16;5052275;28;20017;-74
2023/04/09 05:45:20;;;;;;;40.33;26.25;;;;;;;6.96;100.00;102470.63;5034582;28;20028;-74
2023/04/09 05:47:45;;;;;;;38.22;26.00;;;;;;;6.82;100.00;102451.22;5052397;28;20025;-75
2023/04/09 05:50:11;;;;;;;38.30;25.88;;;;;;;7.01;100.00;102485.06;5034276;28;20111;-75
2023/04/09 05:52:36;;;;;;;44.63;29.35;;;;;;;6.96;100.00;102463.75;5052382;28;20057;-74
2023/04/09 05:55:02;;;;;;;40.40;26.00;;;;;;;7.11;100.00;102481.41;5052277;28;20386;-74
2023/04/09 05:57:29;;;;;;;39.30;27.48;;;;;;;6.93;100.00;102443.28;5052144;28;20474;-75
2023/04/09 05:59:55;;;;;;;41.13;26.00;;;;;;;7.17;100.00;102476.13;5052189;28;20449;-75
2023/04/09 06:02:20;;;;;;;38.47;26.88;;;;;;;7.16;100.00;102461.59;5053360;28;20105;-75
2023/04/09 06:04:45;;;;;;;40.65;28.77;;;;;;;7.53;99.88;102463.31;5056071;28;20035;-75
2023/04/09 06:07:10;;;;;;;39.08;26.52;;;;;;;8.34;96.70;102486.94;5038264;28;20021;-75
2023/04/09 06:09:36;;;;;;;37.85;26.17;;;;;;;9.03;92.10;102480.69;5055940;28;20021;-74
2023/04/09 06:12:02;;;;;;;38.58;26.10;;;;;;;9.20;90.05;102486.19;5055815;28;20021;-75
2023/04/09 06:14:28;;;;;;;38.70;26.30;;;;;;;9.40;89.50;102493.31;5055740;28;20025;-81
2023/04/09 06:16:53;;;;;;;37.20;25.85;;;;;;;9.82;87.38;102487.66;5055739;28;20033;-75
2023/04/09 06:19:19;;;;;;;37.03;26.00;;;;;;;10.29;84.94;102488.66;5055838;28;20052;-76
2023/04/09 06:21:44;;;;;;;36.50;25.48;;;;;;;10.94;81.18;102476.81;5055829;28;20107;-75
2023/04/09 06:24:09;;;;;;;34.08;24.15;;;;;;;11.41;79.77;102471.53;5055881;28;20389;-76
2023/04/09 06:26:35;;;;;;;34.40;24.10;;;;;;;12.04;76.88;102483.56;5055416;28;20025;-75
2023/04/09 06:29:00;;;;;;;31.52;23.85;;;;;;;12.42;74.08;102475.03;5055487;28;20478;-75
2023/04/09 06:31:26;;;;;;;33.55;23.58;;;;;;;12.62;72.59;102482.75;5055509;28;20490;-75
2023/04/09 06:33:51;;;;;;;34.58;24.88;;;;;;;12.93;70.54;102482.19;5055448;28;20059;-74
2023/04/09 06:36:16;;;;;;;35.45;23.70;;;;;;;13.22;69.56;102495.59;5055221;28;20049;-75
2023/04/09 06:38:42;;;;;;;32.35;23.98;;;;;;;13.27;69.35;102491.84;5055619;28;20021;-75
2023/04/09 06:41:07;;;;;;;33.10;24.50;;;;;;;13.40;67.42;102485.16;5055323;28;20028;-76
2023/04/09 06:43:33;;;;;;;32.92;25.35;;;;;;;13.73;66.38;102500.84;5055178;28;20028;-77
2023/04/09 06:45:58;;;;;;;35.67;25.80;;;;;;;14.04;64.95;102497.53;5055215;28;20214;-73
2023/04/09 06:48:24;;;;;;;33.03;23.63;;;;;;;14.40;64.05;102500.94;5055198;28;20021;-74
2023/04/09 06:50:49;;;;;;;33.72;25.23;;;;;;;14.42;61.67;102463.53;5055045;28;20166;-75
2023/04/09 06:53:15;;;;;;;33.80;24.50;;;;;;;14.72;60.86;102497.47;5055048;28;20104;-73
2023/04/09 06:58:15;;;;;;;32.67;25.98;;;;;;;14.17;62.20;102502.13;5059436;22;20049;-78
2023/04/09 07:00:40;;;;;;;33.55;24.33;;;;;;;14.03;62.70;102456.06;5054988;28;20033;-74
2023/04/09 07:03:07;;;;;;;33.95;24.95;;;;;;;14.50;61.68;102469.19;5055041;28;20059;-74
2023/04/09 07:05:33;;;;;;;32.63;24.50;;;;;;;14.84;60.66;102499.41;5054615;28;20086;-75
2023/04/09 07:07:58;;;;;;;33.13;25.23;;;;;;;13.92;61.99;102490.38;5054962;28;20052;-74
2023/04/09 07:10:23;;;;;;;34.65;26.70;;;;;;;13.26;64.84;102505.72;5054713;28;20447;-75
2023/04/09 07:12:49;;;;;;;35.53;26.77;;;;;;;12.43;67.54;102489.69;5054386;28;20056;-75
2023/04/09 07:15:14;;;;;;;33.60;26.40;;;;;;;12.02;70.23;102508.69;5051994;28;20131;-75
2023/04/09 07:17:39;;;;;;;35.67;27.65;;;;;;;11.55;71.74;102507.19;5054760;28;20109;-75
2023/04/09 07:20:05;;;;;;;33.83;25.52;;;;;;;11.23;74.65;102500.69;5054664;28;20029;-74
2023/04/09 07:22:30;;;;;;;35.33;27.42;;;;;;;10.76;76.20;102486.09;5054584;28;20032;-74
2023/04/09 07:24:56;;;;;;;35.55;26.73;;;;;;;10.60;78.00;102485.81;5054589;28;20385;-75
2023/04/09 07:27:26;;;;;;;40.00;30.23;;;;;;;10.69;78.62;102496.69;5054348;28;20025;-75
2023/04/09 07:29:58;;;;;;;37.83;29.20;;;;;;;10.68;78.48;102510.53;5054392;28;20087;-76
2023/04/09 07:32:26;;;;;;;39.67;29.55;;;;;;;10.48;78.91;102493.16;5054493;28;20043;-72
2023/04/09 07:34:52;;;;;;;36.15;27.90;;;;;;;10.50;79.94;102493.94;5054195;28;20112;-73
2023/04/09 07:37:19;;;;;;;38.08;28.75;;;;;;;10.56;80.08;102512.66;5054209;28;20029;-74
2023/04/09 07:39:45;;;;;;;35.95;27.38;;;;;;;10.53;81.16;102497.28;5054170;28;20052;-73
2023/04/09 07:42:13;;;;;;;38.58;28.60;;;;;;;10.53;79.51;102497.28;5054122;28;20029;-74
2023/04/09 07:44:39;;;;;;;36.83;28.38;;;;;;;10.71;80.55;102505.22;5054289;28;20028;-74
2023/04/09 07:47:06;;;;;;;40.10;31.00;;;;;;;10.61;80.12;102508.16;5054140;28;20397;-74
2023/04/09 07:49:32;;;;;;;39.75;29.50;;;;;;;10.58;80.63;102513.44;5053800;28;20056;-74
2023/04/09 07:52:00;;;;;;;40.13;29.30;;;;;;;10.58;81.16;102515.19;5053986;28;20063;-72
2023/04/09 07:54:27;;;;;;;39.03;30.00;;;;;;;10.38;80.12;102515.88;5054111;28;20029;-73
2023/04/09 07:56:52;;;;;;;38.08;28.33;;;;;;;10.21;81.63;102500.09;5052559;28;20139;-72
2023/04/09 07:59:18;;;;;;;37.78;28.38;;;;;;;10.28;81.88;102509.38;5053652;28;20036;-74
2023/04/09 08:01:43;;;;;;;41.38;29.85;;;;;;;10.23;82.36;102488.88;5053818;28;20070;-73
2023/04/09 08:04:11;;;;;;;39.88;30.67;;;;;;;10.61;81.45;102515.91;5053759;28;20014;-74
2023/04/09 08:06:37;;;;;;;37.67;28.83;;;;;;;10.77;80.75;102492.09;5053745;28;20037;-75
2023/04/09 08:09:02;;;;;;;39.25;28.73;;;;;;;11.03;81.26;102494.56;5053795;28;20378;-75
2023/04/09 08:11:27;;;;;;;37.05;27.23;;;;;;;11.24;78.74;102487.72;5053633;28;20037;-76
2023/04/09 08:13:53;;;;;;;37.15;28.20;;;;;;;11.57;77.69;102515.72;5053581;28;20474;-76
2023/04/09 08:16:20;;;;;;;41.53;29.45;;;;;;;11.57;77.00;102482.09;5053544;28;20029;-75
2023/04/09 08:18:45;;;;;;;39.13;30.73;;;;;;;12.03;77.34;102515.53;5053294;28;20021;-78
2023/04/09 08:21:11;;;;;;;39.42;30.08;;;;;;;12.01;76.22;102488.03;5053319;28;20047;-74
2023/04/09 08:23:36;;;;;;;40.13;30.45;;;;;;;12.12;75.82;102479.81;5053473;28;20027;-76
2023/04/09 08:26:02;;;;;;;37.45;29.35;;;;;;;12.29;75.04;102513.56;5053153;28;20060;-75
2023/04/09 08:28:27;;;;;;;38.92;29.73;;;;;;;12.08;74.37;102512.75;5053098;28;20035;-77
2023/04/09 08:30:52;;;;;;;39.88;30.65;;;;;;;11.84;75.31;102500.84;5053165;28;20064;-74
2023/04/09 08:33:18;;;;;;;38.80;30.35;;;;;;;12.00;76.47;102513.09;5035214;28;20032;-78
2023/04/09 08:35:43;;;;;;;39.30;29.98;;;;;;;11.96;75.09;102492.56;5053031;28;20037;-79
2023/04/09 08:38:08;;;;;;;37.22;29.55;;;;;;;12.01;75.74;102513.94;5053006;28;20021;-73
2023/04/09 08:40:35;;;;;;;38.28;31.10;;;;;;;12.01;76.52;102499.25;5053364;28;20055;-73
2023/04/09 08:43:04;;;;;;;38.75;30.55;;;;;;;12.00;76.01;102481.19;5053098;28;20025;-74
2023/04/09 08:45:30;;;;;;;41.40;31.58;;;;;;;12.16;76.02;102496.91;5052986;28;20029;-76
2023/04/09 08:47:58;;;;;;;38.17;31.15;;;;;;;12.15;75.77;102493.47;5052885;28;20414;-71
2023/04/09 08:50:24;;;;;;;39.92;30.73;;;;;;;12.21;75.97;102500.97;5052891;28;20048;-74
2023/04/09 08:52:50;;;;;;;39.53;30.63;;;;;;;12.41;76.34;102505.28;5052907;28;20023;-75
2023/04/09 08:55:15;;;;;;;38.50;29.90;;;;;;;12.15;74.27;102448.59;5053071;28;20107;-75
2023/04/09 08:57:41;;;;;;;40.20;31.73;;;;;;;12.32;74.97;102505.69;5052858;28;20041;-75
2023/04/09 09:00:07;;;;;;;37.20;29.50;;;;;;;12.33;74.83;102505.63;5052805;28;20025;-75
2023/04/09 09:02:33;;;;;;;40.95;33.28;;;;;;;12.41;75.21;102496.69;5051210;28;20121;-75
2023/04/09 09:04:59;;;;;;;43.42;34.17;;;;;;;12.52;76.62;102510.00;5052670;28;20108;-75
2023/04/09 09:07:27;;;;;;;38.92;32.22;;;;;;;12.53;75.58;102498.72;5052541;28;20116;-76
2023/04/09 09:09:55;;;;;;;41.10;33.60;;;;;;;12.33;76.83;102505.63;5052693;28;20036;-77
2023/04/09 09:12:40;;;;;;;42.85;33.70;;;;;;;12.26;76.34;102500.75;5052618;28;20533;-78
2023/04/09 09:15:28;;;;;;;42.38;34.30;;;;;;;12.15;78.10;102487.44;5052420;28;20040;-78
2023/04/09 09:17:58;;;;;;;42.78;33.88;;;;;;;12.21;77.88;102502.72;5052467;28;20021;-75
2023/04/09 09:20:25;;;;;;;45.88;35.78;;;;;;;12.02;77.85;102453.47;5052590;28;20060;-76
2023/04/09 09:22:53;;;;;;;45.83;34.95;;;;;;;12.22;79.09;102494.06;5052681;28;20029;-75
2023/04/09 09:25:22;;;;;;;45.72;35.58;;;;;;;12.25;79.62;102486.13;5035067;28;20061;-75
2023/04/09 09:27:47;;;;;;;41.42;34.85;;;;;;;12.30;78.59;102486.78;5052454;28;20025;-75
2023/04/09 09:30:20;;;;;;;43.05;34.92;;;;;;;12.42;78.22;102494.03;5052082;28;20021;-75
2023/04/09 09:32:46;;;;;;;43.72;35.13;;;;;;;12.54;79.44;102458.94;5052627;28;20025;-77
2023/04/09 09:35:11;;;;;;;47.13;36.00;;;;;;;12.88;77.75;102477.25;5052619;28;20051;-75
2023/04/09 09:37:37;;;;;;;43.38;35.03;;;;;;;13.25;75.99;102482.47;5054580;28;20500;-82
2023/04/09 09:40:03;;;;;;;43.00;35.17;;;;;;;13.54;77.00;102481.88;5038663;28;20082;-74
2023/04/09 09:42:29;;;;;;;43.40;34.60;;;;;;;13.73;73.68;102476.63;5056161;28;20466;-76
2023/04/09 09:44:54;;;;;;;43.28;35.22;;;;;;;13.58;72.40;102459.25;5055391;28;20029;-73
2023/04/09 09:47:21;;;;;;;44.42;35.70;;;;;;;13.41;73.18;102473.88;5055602;28;20025;-72
2023/04/09 09:49:49;;;;;;;41.65;35.05;;;;;;;13.23;73.93;102474.75;5056763;28;20037;-71
2023/04/09 09:52:19;;;;;;;39.92;33.88;;;;;;;12.88;76.27;102437.47;5055011;28;20021;-76
2023/04/09 09:54:51;;;;;;;43.60;35.90;;;;;;;12.83;77.99;102442.88;5056181;28;20386;-74
2023/04/09 09:57:18;;;;;;;44.00;36.85;;;;;;;13.11;78.96;102462.34;5037925;28;20103;-79
2023/04/09 09:59:59;;;;;;;41.60;33.35;;;;;;;12.93;76.04;102423.41;5055678;28;20025;-74
2023/04/09 10:02:29;;;;;;;40.70;33.50;;;;;;;13.28;76.91;102449.44;5055952;28;20029;-72
2023/04/09 10:04:59;;;;;;;40.97;34.38;;;;;;;13.34;74.88;102458.66;5055974;28;20021;-71
2023/04/09 10:07:25;;;;;;;42.85;34.65;;;;;;;13.31;75.16;102453.63;5055832;28;20537;-79
2023/04/09 10:09:53;;;;;;;41.83;34.55;;;;;;;13.14;74.66;102405.97;5055996;28;20429;-73
2023/04/09 10:12:22;;;;;;;39.72;31.45;;;;;;;13.62;75.09;102447.78;5037035;28;20040;-73
2023/04/09 10:14:49;;;;;;;41.75;33.40;;;;;;;13.72;73.06;102449.00;5055600;28;20484;-71
2023/04/09 10:17:16;;;;;;;41.08;32.45;;;;;;;13.84;72.31;102437.97;5055493;28;20486;-72
2023/04/09 10:19:48;;;;;;;37.17;29.83;;;;;;;13.91;69.69;102431.56;5055650;28;20029;-80
2023/04/09 10:22:19;;;;;;;37.25;31.60;;;;;;;14.40;69.26;102436.78;5054339;28;20390;-74
2023/04/09 10:24:46;;;;;;;37.35;30.48;;;;;;;14.76;68.59;102443.56;5056129;28;20025;-74
2023/04/09 10:27:15;;;;;;;37.22;30.23;;;;;;;14.89;67.91;102408.13;5037577;28;20132;-75
2023/04/09 10:29:45;;;;;;;33.30;27.75;;;;;;;15.32;67.15;102436.91;5054104;28;20040;-73
2023/04/09 10:32:12;;;;;;;35.50;28.15;;;;;;;15.44;66.92;102433.63;5055391;28;20036;-74
2023/04/09 10:34:39;;;;;;;31.35;27.65;;;;;;;15.33;63.54;102433.38;5055331;28;20104;-74
2023/04/09 10:37:13;;;;;;;33.17;27.33;;;;;;;15.20;63.35;102428.06;5055422;28;20029;-76
2023/04/09 10:39:43;;;;;;;33.60;26.35;;;;;;;15.16;62.93;102429.16;5055051;28;20040;-74
2023/04/09 10:42:26;;;;;;;33.00;28.13;;;;;;;15.14;63.22;102424.06;5055320;28;20025;-74
2023/04/09 10:45:13;;;;;;;31.58;26.50;;;;;;;14.98;65.00;102414.59;5055175;28;20159;-75
2023/04/09 10:47:41;;;;;;;31.48;26.38;;;;;;;14.74;64.99;102415.00;5055069;28;20053;-75
2023/04/09 10:50:20;;;;;;;31.33;26.45;;;;;;;14.63;64.88;102392.22;5053906;28;20035;-75
2023/04/09 10:52:50;;;;;;;30.33;25.20;;;;;;;14.86;63.75;102414.34;5055032;28;20162;-75
2023/04/09 10:55:35;;;;;;;31.42;26.95;;;;;;;14.86;65.39;102396.16;5055116;28;20104;-75
2023/04/09 10:58:03;;;;;;;33.58;27.33;;;;;;;14.91;65.08;102403.69;5036960;28;20056;-71
2023/04/09 11:00:28;;;;;;;30.90;24.63;;;;;;;14.79;63.58;102388.78;5054882;28;20043;-74
2023/04/09 11:03:10;;;;;;;28.15;24.33;;;;;;;14.78;62.79;102400.94;5054686;28;20021;-74
2023/04/09 11:05:39;;;;;;;29.30;24.23;;;;;;;14.47;63.54;102364.56;5054914;28;20036;-74
2023/04/09 11:08:12;;;;;;;27.52;23.35;;;;;;;14.84;64.86;102390.16;5054775;28;20052;-74
2023/04/09 11:10:39;;;;;;;26.75;22.83;;;;;;;15.12;63.01;102389.44;5054818;28;20025;-75
2023/04/09 11:13:05;;;;;;;27.80;22.77;;;;;;;15.40;63.09;102377.44;5054917;28;20102;-74
2023/04/09 11:15:34;;;;;;;27.63;21.25;;;;;;;15.56;59.25;102385.22;5054440;28;20452;-73